createdAt,value
2019-05-23T00:01:34.059Z,89.92
2019-05-23T00:04:25.991Z,90.14
2019-05-23T00:07:00.563Z,90.72
2019-05-23T00:09:33.749Z,90.59
2019-05-23T00:12:31.291Z,90.40
2019-05-23T00:15:18.761Z,90.79
2019-05-23T00:17:50.005Z,91.50
2019-05-23T00:20:25.884Z,91.85
2019-05-23T00:22:58.769Z,92.19
2019-05-23T00:25:33.538Z,91.84
2019-05-23T00:28:06.437Z,92.55
2019-05-23T00:30:50.233Z,92.63
2019-05-23T00:33:27.641Z,92.48
2019-05-23T00:36:02.065Z,92.77
2019-05-23T00:38:35.685Z,92.84
2019-05-23T00:41:09.318Z,92.50
2019-05-23T00:43:41.395Z,92.42
2019-05-23T00:46:14.949Z,91.53
2019-05-23T00:48:50.972Z,91.82
2019-05-23T00:51:25.730Z,91.71
2019-05-23T00:54:00.042Z,91.51
2019-05-23T00:56:36.180Z,91.03
2019-05-23T00:59:08.146Z,91.49
2019-05-23T01:01:41.470Z,91.82
2019-05-23T01:04:13.288Z,92.54
2019-05-23T01:06:46.443Z,92.89
2019-05-23T01:09:20.745Z,93.15
2019-05-23T01:11:52.139Z,93.19
2019-05-23T01:14:24.884Z,93.07
2019-05-23T01:16:59.095Z,92.61
2019-05-23T01:19:34.578Z,92.72
2019-05-23T01:22:10.141Z,92.74
2019-05-23T01:24:46.657Z,92.97
2019-05-23T01:27:19.476Z,93.44
2019-05-23T01:29:53.561Z,93.37
2019-05-23T01:32:39.099Z,93.30
2019-05-23T01:35:22.218Z,93.05
2019-05-23T01:37:56.800Z,92.67
2019-05-23T01:40:29.123Z,92.53
2019-05-23T01:43:02.452Z,92.17
2019-05-23T01:45:34.345Z,92.35
2019-05-23T01:48:07.426Z,91.90
2019-05-23T01:50:40.431Z,92.00
2019-05-23T01:53:13.796Z,91.90
2019-05-23T01:55:47.755Z,92.37
2019-05-23T01:58:22.928Z,92.56
2019-05-23T02:00:56.133Z,91.84
2019-05-23T02:03:28.810Z,90.64
2019-05-23T02:06:02.313Z,90.76
2019-05-23T02:08:35.228Z,90.89
2019-05-23T02:11:07.130Z,91.46
2019-05-23T02:13:40.896Z,91.42
2019-05-23T02:16:12.206Z,90.45
2019-05-23T02:18:46.747Z,90.80
2019-05-23T02:21:19.205Z,90.22
2019-05-23T02:23:52.404Z,89.97
2019-05-23T02:26:26.936Z,89.12
2019-05-23T02:29:00.876Z,89.57
2019-05-23T02:31:32.847Z,89.71
2019-05-23T02:34:05.316Z,89.54
2019-05-23T02:36:37.691Z,89.62
2019-05-23T02:39:24.336Z,90.00
2019-05-23T02:42:04.922Z,90.02
2019-05-23T02:44:37.120Z,90.17
2019-05-23T02:47:26.324Z,90.16
2019-05-23T02:50:01.732Z,90.60
2019-05-23T02:52:49.127Z,90.97
2019-05-23T02:55:27.039Z,89.93
2019-05-23T02:58:05.254Z,89.54
2019-05-23T03:00:55.941Z,88.53
2019-05-23T03:03:32.606Z,88.23
2019-05-23T03:06:08.311Z,86.16
2019-05-23T03:08:41.888Z,86.16
2019-05-23T03:11:39.877Z,87.21
2019-05-23T03:14:13.492Z,87.22
2019-05-23T03:16:51.107Z,87.84
2019-05-23T03:19:32.325Z,87.66
2019-05-23T03:22:31.577Z,88.04
2019-05-23T03:25:27.197Z,88.98
2019-05-23T03:28:04.831Z,89.61
2019-05-23T03:30:40.798Z,90.21
2019-05-23T03:33:15.168Z,90.37
2019-05-23T03:35:48.589Z,90.79
2019-05-23T03:38:24.390Z,91.37
2019-05-23T03:41:00.502Z,89.74
2019-05-23T03:43:37.867Z,87.87
2019-05-23T03:46:13.052Z,86.83
2019-05-23T03:48:46.525Z,85.42
2019-05-23T03:51:26.762Z,85.14
2019-05-23T03:54:04.485Z,84.77
2019-05-23T03:56:37.662Z,83.95
2019-05-23T03:59:15.572Z,84.05
2019-05-23T04:01:51.418Z,85.41
2019-05-23T04:04:27.737Z,86.56
2019-05-23T04:07:03.202Z,87.41
2019-05-23T04:09:36.791Z,87.61
2019-05-23T04:12:10.994Z,87.50
2019-05-23T04:14:46.593Z,85.75
2019-05-23T04:17:20.608Z,84.48
2019-05-23T04:19:56.337Z,85.47
2019-05-23T04:22:29.990Z,85.11
2019-05-23T04:25:02.576Z,85.89
2019-05-23T04:27:45.843Z,85.60
2019-05-23T04:30:21.360Z,86.34
2019-05-23T04:32:56.560Z,86.47
2019-05-23T04:35:32.239Z,86.80
2019-05-23T04:38:05.784Z,86.97
2019-05-23T04:40:38.463Z,87.37
2019-05-23T04:43:11.752Z,87.39
2019-05-23T04:45:47.755Z,87.60
2019-05-23T04:48:19.804Z,85.21
2019-05-23T04:50:53.728Z,85.92
2019-05-23T04:53:25.654Z,86.13
2019-05-23T04:55:57.906Z,85.30
2019-05-23T04:58:31.837Z,84.72
2019-05-23T05:01:05.554Z,84.87
2019-05-23T05:03:40.178Z,84.63
2019-05-23T05:06:13.850Z,83.59
2019-05-23T05:08:48.203Z,83.17
2019-05-23T05:11:20.117Z,83.78
2019-05-23T05:13:52.508Z,83.26
2019-05-23T05:16:43.494Z,83.20
2019-05-23T05:19:16.908Z,83.95
2019-05-23T05:21:49.826Z,83.28
2019-05-23T05:24:22.844Z,82.54
2019-05-23T05:26:56.106Z,81.42
2019-05-23T05:29:29.093Z,81.15
2019-05-23T05:32:04.584Z,80.89
2019-05-23T05:34:37.429Z,80.59
2019-05-23T05:37:09.001Z,79.30
2019-05-23T05:39:40.524Z,78.82
2019-05-23T05:42:13.854Z,79.09
2019-05-23T05:44:46.553Z,77.96
2019-05-23T05:47:21.883Z,75.98
2019-05-23T05:49:55.561Z,77.02
2019-05-23T05:52:30.663Z,76.49
2019-05-23T05:55:01.949Z,75.96
2019-05-23T05:57:43.287Z,75.71
2019-05-23T06:00:39.360Z,73.50
2019-05-23T06:03:12.170Z,72.73
2019-05-23T06:06:03.709Z,72.89
2019-05-23T06:08:37.068Z,73.32
2019-05-23T06:11:14.025Z,73.75
2019-05-23T06:13:48.785Z,73.61
2019-05-23T06:16:22.671Z,74.23
2019-05-23T06:18:56.673Z,74.42
2019-05-23T06:21:30.773Z,74.03
2019-05-23T06:24:07.055Z,74.48
2019-05-23T06:26:41.207Z,74.73
2019-05-23T06:29:13.736Z,74.00
2019-05-23T06:31:46.613Z,73.94
2019-05-23T06:34:21.488Z,73.55
2019-05-23T06:36:53.908Z,73.46
2019-05-23T06:39:27.379Z,73.58
2019-05-23T06:41:59.720Z,73.18
2019-05-23T06:44:33.610Z,73.74
2019-05-23T06:47:07.050Z,73.06
2019-05-23T06:49:41.310Z,72.84
2019-05-23T06:52:13.193Z,72.33
2019-05-23T06:54:47.492Z,71.91
2019-05-23T06:57:19.899Z,72.07
2019-05-23T06:59:54.060Z,71.18
2019-05-23T07:02:31.197Z,71.26
2019-05-23T07:05:13.544Z,71.77
2019-05-23T07:07:46.898Z,71.56
2019-05-23T07:10:19.332Z,71.47
2019-05-23T07:12:53.450Z,71.25
2019-05-23T07:15:27.043Z,71.54
2019-05-23T07:18:01.537Z,70.69
2019-05-23T07:20:34.741Z,70.76
2019-05-23T07:23:11.165Z,71.06
2019-05-23T07:25:53.995Z,70.91
2019-05-23T07:28:25.446Z,71.47
2019-05-23T07:30:57.869Z,71.07
2019-05-23T07:33:33.306Z,71.27
2019-05-23T07:36:06.173Z,71.26
2019-05-23T07:38:38.113Z,72.11
2019-05-23T07:41:11.636Z,71.61
2019-05-23T07:43:43.691Z,71.97
2019-05-23T07:46:17.051Z,71.83
2019-05-23T07:48:49.728Z,71.75
2019-05-23T07:51:22.676Z,71.86
2019-05-23T07:54:12.040Z,71.11
2019-05-23T07:56:45.904Z,70.70
2019-05-23T07:59:21.549Z,69.83
2019-05-23T08:02:04.313Z,68.88
2019-05-23T08:04:36.795Z,68.76
2019-05-23T08:07:13.877Z,68.61
2019-05-23T08:09:46.204Z,68.59
2019-05-23T08:12:20.026Z,68.55
2019-05-23T08:14:54.245Z,68.02
2019-05-23T08:17:26.012Z,67.70
2019-05-23T08:20:00.065Z,68.38
2019-05-23T08:22:34.668Z,68.40
2019-05-23T08:25:16.096Z,68.06
2019-05-23T08:27:48.867Z,68.30
2019-05-23T08:30:24.818Z,68.60
2019-05-23T08:32:57.160Z,68.06
2019-05-23T08:35:29.264Z,68.64
2019-05-23T08:38:00.937Z,68.12
2019-05-23T08:40:34.067Z,68.44
2019-05-23T08:43:07.221Z,67.40
2019-05-23T08:45:41.483Z,67.93
2019-05-23T08:48:14.341Z,67.94
2019-05-23T08:50:51.874Z,66.77
2019-05-23T08:53:26.293Z,67.33
2019-05-23T08:55:59.850Z,67.47
2019-05-23T08:58:31.928Z,66.05
2019-05-23T09:01:05.255Z,66.97
2019-05-23T09:03:41.035Z,66.74
2019-05-23T09:06:14.911Z,66.87
2019-05-23T09:08:51.711Z,67.01
2019-05-23T09:11:23.376Z,67.46
2019-05-23T09:13:56.663Z,66.10
2019-05-23T09:16:29.105Z,66.69
2019-05-23T09:19:01.038Z,66.04
2019-05-23T09:21:37.499Z,65.68
2019-05-23T09:24:09.860Z,66.14
2019-05-23T09:26:45.580Z,66.07
2019-05-23T09:29:18.608Z,65.92
2019-05-23T09:31:51.679Z,66.19
2019-05-23T09:34:23.363Z,65.75
2019-05-23T09:36:55.973Z,64.69
2019-05-23T09:39:32.440Z,65.00
2019-05-23T09:42:06.803Z,65.30
2019-05-23T09:44:42.033Z,64.54
2019-05-23T09:47:13.509Z,64.36
2019-05-23T09:49:55.601Z,64.53
2019-05-23T09:52:25.035Z,63.13
2019-05-23T09:54:58.228Z,63.89
2019-05-23T09:57:43.094Z,63.09
2019-05-23T10:00:21.051Z,62.60
2019-05-23T10:02:56.659Z,62.92
2019-05-23T10:05:41.826Z,62.36
2019-05-23T10:08:07.230Z,61.46
2019-05-23T10:10:42.007Z,60.75
2019-05-23T10:13:14.377Z,61.03
2019-05-23T10:16:04.302Z,60.58
2019-05-23T10:18:43.280Z,60.44
2019-05-23T10:21:20.374Z,59.61
2019-05-23T10:23:56.859Z,59.66
2019-05-23T10:26:29.473Z,58.80
2019-05-23T10:29:02.689Z,59.48
2019-05-23T10:31:37.752Z,59.31
2019-05-23T10:34:10.365Z,59.82
2019-05-23T10:36:42.566Z,59.67
2019-05-23T10:39:16.370Z,59.75
2019-05-23T10:41:50.351Z,59.95
2019-05-23T10:44:23.357Z,59.63
2019-05-23T10:46:55.414Z,59.73
2019-05-23T10:49:29.371Z,58.93
2019-05-23T10:52:02.327Z,59.29
2019-05-23T10:54:33.547Z,57.62
2019-05-23T10:57:08.809Z,58.70
2019-05-23T10:59:46.124Z,58.58
2019-05-23T11:02:18.992Z,58.55
2019-05-23T11:04:54.503Z,57.97
2019-05-23T11:07:27.498Z,58.30
2019-05-23T11:10:02.206Z,58.13
2019-05-23T11:12:44.010Z,57.67
2019-05-23T11:15:21.309Z,58.01
2019-05-23T11:17:55.056Z,57.92
2019-05-23T11:20:29.149Z,57.44
2019-05-23T11:23:04.291Z,57.47
2019-05-23T11:25:40.751Z,57.87
2019-05-23T11:28:13.536Z,57.19
2019-05-23T11:30:53.763Z,57.26
2019-05-23T11:33:26.671Z,56.05
2019-05-23T11:36:01.278Z,56.73
2019-05-23T11:38:36.742Z,55.88
2019-05-23T11:41:10.568Z,56.78
2019-05-23T11:43:44.811Z,56.21
2019-05-23T11:46:27.975Z,56.56
2019-05-23T11:49:01.297Z,56.19
2019-05-23T11:51:35.698Z,55.38
2019-05-23T11:54:09.677Z,55.19
2019-05-23T11:56:41.765Z,54.63
2019-05-23T11:59:14.474Z,55.66
2019-05-23T12:02:07.462Z,56.00
2019-05-23T12:04:43.322Z,55.46
2019-05-23T12:07:45.902Z,56.17
2019-05-23T12:10:19.829Z,57.31
2019-05-23T12:12:51.886Z,57.75
2019-05-23T12:15:28.465Z,57.86
2019-05-23T12:18:02.187Z,58.36
2019-05-23T12:20:34.973Z,58.20
2019-05-23T12:23:10.995Z,58.03
2019-05-23T12:25:43.832Z,58.79
2019-05-23T12:28:19.351Z,58.87
2019-05-23T12:30:52.902Z,58.19
2019-05-23T12:33:25.912Z,58.62
2019-05-23T12:35:58.030Z,57.83
2019-05-23T12:38:30.285Z,57.40
2019-05-23T12:41:04.582Z,56.92
2019-05-23T12:43:41.484Z,57.27
2019-05-23T12:46:15.529Z,57.78
2019-05-23T12:49:05.574Z,57.70
2019-05-23T12:51:39.972Z,58.04
2019-05-23T12:54:13.648Z,57.84
2019-05-23T12:56:48.975Z,56.12
2019-05-23T12:59:21.871Z,56.25
2019-05-23T13:01:57.540Z,57.13
2019-05-23T13:04:31.656Z,57.55
2019-05-23T13:07:03.331Z,57.15
2019-05-23T13:09:37.223Z,57.56
2019-05-23T13:12:11.143Z,56.35
2019-05-23T13:14:46.605Z,56.16
2019-05-23T13:17:19.760Z,55.86
2019-05-23T13:19:51.004Z,55.83
2019-05-23T13:22:25.156Z,55.69
2019-05-23T13:24:58.147Z,55.16
2019-05-23T13:27:29.733Z,55.38
2019-05-23T13:30:00.979Z,54.69
2019-05-23T13:32:45.603Z,55.07
2019-05-23T13:35:17.231Z,55.14
2019-05-23T13:37:54.054Z,54.55
2019-05-23T13:40:33.318Z,55.86
2019-05-23T13:43:09.032Z,55.96
2019-05-23T13:45:42.814Z,56.65
2019-05-23T13:48:14.509Z,56.50
2019-05-23T13:50:49.476Z,56.35
2019-05-23T13:53:22.355Z,56.34
2019-05-23T13:55:58.107Z,55.33
2019-05-23T13:58:31.877Z,55.86
2019-05-23T14:01:09.620Z,54.78
2019-05-23T14:03:41.270Z,55.43
2019-05-23T14:06:14.390Z,55.35
2019-05-23T14:08:50.343Z,55.49
2019-05-23T14:11:24.499Z,54.90
2019-05-23T14:14:01.237Z,54.55
2019-05-23T14:16:39.991Z,54.47
2019-05-23T14:19:13.704Z,53.36
2019-05-23T14:21:49.433Z,54.34
2019-05-23T14:24:25.591Z,54.44
2019-05-23T14:27:06.767Z,54.80
2019-05-23T14:29:38.414Z,54.40
2019-05-23T14:32:21.067Z,54.25
2019-05-23T14:34:54.513Z,54.58
2019-05-23T14:37:34.685Z,52.67
2019-05-23T14:40:17.317Z,53.27
2019-05-23T14:42:59.150Z,52.40
2019-05-23T14:45:48.382Z,51.23
2019-05-23T14:48:39.437Z,49.96
2019-05-23T14:51:38.198Z,49.74
2019-05-23T14:54:19.934Z,49.80
2019-05-23T14:56:53.832Z,48.33
2019-05-23T14:59:28.702Z,47.91
2019-05-23T15:02:04.199Z,47.99
2019-05-23T15:04:37.395Z,47.56
2019-05-23T15:07:09.865Z,46.54
2019-05-23T15:09:42.841Z,46.50
2019-05-23T15:12:14.718Z,46.54
2019-05-23T15:14:47.122Z,46.53
2019-05-23T15:17:22.408Z,46.58
2019-05-23T15:19:57.958Z,46.38
2019-05-23T15:22:31.429Z,46.40
2019-05-23T15:25:16.658Z,45.65
2019-05-23T15:27:52.355Z,46.04
2019-05-23T15:30:23.796Z,45.94
2019-05-23T15:32:55.846Z,45.96
2019-05-23T15:35:31.396Z,45.67
2019-05-23T15:38:04.685Z,46.30
2019-05-23T15:40:50.002Z,46.00
2019-05-23T15:43:23.851Z,46.20
2019-05-23T15:45:57.061Z,46.40
2019-05-23T15:48:30.813Z,46.63
2019-05-23T15:51:18.341Z,46.98
2019-05-23T15:54:04.678Z,46.75
2019-05-23T15:57:00.541Z,46.75
2019-05-23T15:59:50.790Z,47.66
2019-05-23T16:02:28.795Z,48.11
2019-05-23T16:05:15.277Z,48.35
2019-05-23T16:07:48.430Z,48.49
2019-05-23T16:10:21.955Z,48.79
2019-05-23T16:12:54.800Z,49.02
2019-05-23T16:15:30.407Z,49.21
2019-05-23T16:18:03.937Z,49.62
2019-05-23T16:20:38.117Z,49.51
2019-05-23T16:23:26.959Z,49.94
2019-05-23T16:26:16.656Z,50.44
2019-05-23T16:29:26.055Z,50.71
2019-05-23T16:32:01.111Z,50.93
2019-05-23T16:35:19.972Z,51.45
2019-05-23T16:37:53.981Z,51.81
2019-05-23T16:40:25.422Z,51.92
2019-05-23T16:43:34.695Z,51.85
2019-05-23T16:46:06.999Z,52.07
2019-05-23T16:49:14.509Z,52.05
2019-05-23T16:52:00.338Z,51.37
2019-05-23T16:54:56.359Z,51.11
2019-05-23T16:58:10.632Z,50.49
2019-05-23T17:01:00.912Z,49.62
2019-05-23T17:03:48.026Z,49.44
2019-05-23T17:06:29.213Z,48.09
2019-05-23T17:09:19.651Z,45.41
2019-05-23T17:12:17.738Z,46.05
2019-05-23T17:14:56.680Z,43.90
2019-05-23T17:18:01.501Z,44.23
2019-05-23T17:20:40.669Z,43.61
2019-05-23T17:23:34.310Z,43.70
2019-05-23T17:26:41.026Z,44.02
2019-05-23T17:29:41.982Z,44.14
2019-05-23T17:32:18.954Z,43.98
2019-05-23T17:34:52.257Z,44.29
2019-05-23T17:37:26.478Z,44.40
2019-05-23T17:40:24.124Z,44.38
2019-05-23T17:42:48.887Z,44.79
2019-05-23T17:45:23.601Z,44.85
2019-05-23T17:48:00.885Z,45.15
2019-05-23T17:50:34.957Z,45.54
2019-05-23T17:53:08.786Z,45.51
2019-05-23T17:55:43.818Z,46.14
2019-05-23T17:58:16.112Z,46.50
2019-05-23T18:00:48.926Z,46.76
2019-05-23T18:03:22.460Z,47.20
2019-05-23T18:05:58.557Z,47.67
2019-05-23T18:08:35.234Z,47.71
2019-05-23T18:11:11.413Z,48.02
2019-05-23T18:13:45.364Z,47.49
2019-05-23T18:16:19.461Z,48.01
2019-05-23T18:18:53.540Z,47.26
2019-05-23T18:21:26.928Z,47.09
2019-05-23T18:24:00.714Z,47.07
2019-05-23T18:26:32.566Z,46.77
2019-05-23T18:29:05.851Z,46.55
2019-05-23T18:31:39.214Z,46.36
2019-05-23T18:34:10.934Z,46.18
2019-05-23T18:36:45.150Z,47.05
2019-05-23T18:39:19.045Z,46.68
2019-05-23T18:41:53.121Z,46.76
2019-05-23T18:44:30.191Z,46.86
2019-05-23T18:47:10.090Z,47.12
2019-05-23T18:49:45.023Z,47.27
2019-05-23T18:52:19.743Z,47.44
2019-05-23T18:54:55.415Z,47.50
2019-05-23T18:57:32.439Z,47.31
2019-05-23T19:00:15.725Z,46.95
2019-05-23T19:02:49.817Z,47.32
2019-05-23T19:05:27.406Z,47.54
2019-05-23T19:08:02.463Z,47.68
2019-05-23T19:10:38.173Z,47.49
2019-05-23T19:13:12.370Z,47.39
2019-05-23T19:15:45.758Z,47.51
2019-05-23T19:18:57.124Z,46.88
2019-05-23T19:21:33.166Z,46.74
2019-05-23T19:24:07.470Z,46.99
2019-05-23T19:26:42.866Z,46.79
2019-05-23T19:29:16.486Z,46.72
2019-05-23T19:31:50.028Z,46.70
2019-05-23T19:34:23.360Z,46.61
2019-05-23T19:36:55.976Z,46.89
2019-05-23T19:39:31.454Z,46.86
2019-05-23T19:42:05.477Z,46.75
2019-05-23T19:44:38.035Z,46.70
2019-05-23T19:47:13.851Z,46.79
2019-05-23T19:49:47.396Z,46.89
2019-05-23T19:52:20.918Z,46.82
2019-05-23T19:54:54.013Z,46.64
2019-05-23T19:57:30.792Z,46.46
2019-05-23T20:00:14.433Z,46.14
2019-05-23T20:02:50.539Z,46.30
2019-05-23T20:05:28.734Z,46.68
2019-05-23T20:08:00.163Z,46.47
2019-05-23T20:10:33.530Z,46.46
2019-05-23T20:13:08.003Z,46.76
2019-05-23T20:15:47.206Z,46.75
2019-05-23T20:18:23.843Z,46.88
2019-05-23T20:20:57.449Z,46.71
2019-05-23T20:23:30.296Z,46.78
2019-05-23T20:26:08.184Z,46.86
2019-05-23T20:28:43.730Z,46.91
2019-05-23T20:31:15.845Z,46.54
2019-05-23T20:33:49.412Z,46.40
2019-05-23T20:36:21.406Z,45.69
2019-05-23T20:38:55.160Z,44.79
2019-05-23T20:41:29.639Z,44.52
2019-05-23T20:44:04.612Z,44.73
2019-05-23T20:46:38.764Z,45.24
2019-05-23T20:49:13.068Z,44.13
2019-05-23T20:51:46.869Z,43.02
2019-05-23T20:54:20.244Z,42.85
2019-05-23T20:56:53.316Z,43.02
2019-05-23T20:59:27.959Z,44.04
2019-05-23T21:02:01.388Z,43.42
2019-05-23T21:04:32.706Z,43.56
2019-05-23T21:07:08.074Z,44.45
2019-05-23T21:09:46.355Z,46.49
2019-05-23T21:12:29.581Z,47.78
2019-05-23T21:14:53.466Z,48.87
2019-05-23T21:17:29.752Z,49.49
2019-05-23T21:20:15.567Z,50.20
2019-05-23T21:22:50.227Z,50.72
2019-05-23T21:25:23.783Z,50.77
2019-05-23T21:27:54.955Z,51.01
2019-05-23T21:30:28.339Z,50.95
2019-05-23T21:33:00.914Z,51.71
2019-05-23T21:35:35.600Z,51.77
2019-05-23T21:38:15.152Z,52.13
2019-05-23T21:40:48.470Z,51.46
2019-05-23T21:43:22.601Z,51.77
2019-05-23T21:45:55.413Z,52.29
2019-05-23T21:48:27.769Z,52.07
2019-05-23T21:51:02.340Z,52.90
2019-05-23T21:53:36.139Z,53.57
2019-05-23T21:56:08.571Z,54.13
2019-05-23T21:58:42.830Z,54.34
2019-05-23T22:01:55.176Z,54.42
2019-05-23T22:04:31.554Z,54.77
2019-05-23T22:07:12.529Z,55.35
2019-05-23T22:09:46.393Z,55.94
2019-05-23T22:12:19.724Z,56.34
2019-05-23T22:14:54.273Z,56.00
2019-05-23T22:17:27.539Z,56.02
2019-05-23T22:20:00.748Z,56.39
2019-05-23T22:22:43.627Z,56.46
2019-05-23T22:25:27.714Z,56.91
2019-05-23T22:28:00.679Z,56.89
2019-05-23T22:30:35.195Z,57.20
2019-05-23T22:33:09.662Z,57.70
2019-05-23T22:35:43.423Z,57.61
2019-05-23T22:38:14.802Z,57.69
2019-05-23T22:40:48.686Z,57.96
2019-05-23T22:43:21.680Z,58.30
2019-05-23T22:45:53.677Z,58.66
2019-05-23T22:48:26.918Z,58.63
2019-05-23T22:51:01.509Z,58.92
2019-05-23T22:53:32.703Z,59.15
2019-05-23T22:56:04.024Z,59.30
2019-05-23T22:58:37.471Z,59.68
2019-05-23T23:01:09.499Z,59.85
2019-05-23T23:03:41.894Z,60.05
2019-05-23T23:06:15.418Z,60.18
2019-05-23T23:08:50.534Z,60.38
2019-05-23T23:11:23.581Z,60.39
2019-05-23T23:13:56.888Z,60.52
2019-05-23T23:16:29.890Z,60.50
2019-05-23T23:19:04.738Z,60.57
2019-05-23T23:21:39.197Z,60.66
2019-05-23T23:24:12.132Z,60.43
2019-05-23T23:26:49.478Z,60.25
2019-05-23T23:29:21.199Z,60.04
2019-05-23T23:31:54.363Z,60.25
2019-05-23T23:34:26.040Z,60.29
2019-05-23T23:36:58.164Z,60.04
2019-05-23T23:39:29.640Z,60.46
2019-05-23T23:42:05.178Z,60.30
2019-05-23T23:44:35.806Z,60.37
2019-05-23T23:47:27.556Z,60.25
2019-05-23T23:50:17.728Z,60.13
2019-05-23T23:53:06.827Z,60.07
2019-05-23T23:55:57.908Z,60.08
2019-05-23T23:58:30.772Z,59.98
